createdAt,value
2023-02-18T00:01:40.310Z,7.65
2023-02-18T00:04:09.523Z,7.43
2023-02-18T00:06:36.735Z,7.57
2023-02-18T00:09:05.388Z,8.40
2023-02-18T00:11:36.495Z,7.57
2023-02-18T00:14:05.545Z,8.45
2023-02-18T00:16:32.232Z,8.52
2023-02-18T00:19:03.809Z,7.40
2023-02-18T00:21:32.061Z,8.13
2023-02-18T00:24:01.536Z,6.90
2023-02-18T00:26:34.387Z,6.88
2023-02-18T00:29:01.380Z,7.22
2023-02-18T00:31:36.526Z,7.32
2023-02-18T00:34:05.032Z,7.20
2023-02-18T00:36:32.034Z,7.18
2023-02-18T00:39:00.671Z,7.68
2023-02-18T00:41:31.910Z,7.47
2023-02-18T00:44:00.789Z,7.50
2023-02-18T00:46:30.084Z,6.38
2023-02-18T00:48:57.185Z,6.70
2023-02-18T00:51:25.462Z,6.25
2023-02-18T00:53:52.110Z,6.65
2023-02-18T00:56:19.175Z,6.65
2023-02-18T00:58:52.003Z,6.40
2023-02-18T01:01:19.168Z,5.82
2023-02-18T01:03:46.201Z,6.70
2023-02-18T01:06:16.438Z,6.45
2023-02-18T01:08:43.089Z,6.93
2023-02-18T01:11:13.386Z,6.15
2023-02-18T01:13:40.799Z,6.75
2023-02-18T01:16:17.237Z,6.05
2023-02-18T01:18:48.522Z,6.20
2023-02-18T01:21:15.818Z,6.88
2023-02-18T01:23:42.721Z,6.07
2023-02-18T01:26:13.378Z,6.15
2023-02-18T01:28:43.708Z,6.20
2023-02-18T01:31:14.957Z,6.20
2023-02-18T01:33:42.421Z,5.88
2023-02-18T01:36:11.054Z,6.13
2023-02-18T01:38:41.558Z,6.35
2023-02-18T01:41:08.242Z,7.07
2023-02-18T01:43:38.209Z,6.38
2023-02-18T01:46:09.037Z,6.22
2023-02-18T01:48:40.707Z,6.18
2023-02-18T01:51:21.641Z,6.70
2023-02-18T01:54:09.619Z,6.30
2023-02-18T01:56:47.137Z,6.53
2023-02-18T01:59:20.369Z,6.88
2023-02-18T02:01:48.287Z,6.60
2023-02-18T02:04:17.806Z,7.45
2023-02-18T02:06:45.573Z,7.13
2023-02-18T02:09:15.759Z,7.88
2023-02-18T02:12:19.834Z,8.00
2023-02-18T02:15:08.266Z,7.65
2023-02-18T02:17:55.071Z,7.82
2023-02-18T02:20:53.463Z,9.35
2023-02-18T02:23:41.701Z,7.97
2023-02-18T02:26:57.934Z,8.82
2023-02-18T02:29:51.181Z,9.20
2023-02-18T02:32:38.978Z,9.13
2023-02-18T02:35:29.317Z,9.48
2023-02-18T02:38:04.076Z,10.75
2023-02-18T02:40:44.179Z,9.30
2023-02-18T02:43:31.534Z,10.10
2023-02-18T02:46:05.120Z,9.48
2023-02-18T02:48:47.029Z,9.02
2023-02-18T02:51:23.661Z,8.88
2023-02-18T02:53:50.251Z,9.02
2023-02-18T02:56:20.288Z,9.70
2023-02-18T02:58:59.297Z,8.82
2023-02-18T03:01:53.901Z,8.75
2023-02-18T03:04:30.590Z,9.20
2023-02-18T03:07:19.469Z,8.02
2023-02-18T03:10:04.610Z,8.48
2023-02-18T03:13:02.200Z,7.18
2023-02-18T03:15:47.109Z,7.40
2023-02-18T03:18:36.592Z,7.65
2023-02-18T03:21:08.777Z,6.57
2023-02-18T03:23:48.721Z,6.40
2023-02-18T03:26:18.578Z,5.35
2023-02-18T03:28:51.097Z,4.57
2023-02-18T03:34:05.057Z,4.72
2023-02-18T03:36:35.410Z,4.78
2023-02-18T03:39:21.350Z,3.85
2023-02-18T03:41:51.138Z,3.22
2023-02-18T03:44:22.280Z,2.88
2023-02-18T03:46:48.897Z,2.30
2023-02-18T03:49:15.976Z,2.22
2023-02-18T03:51:50.550Z,2.10
2023-02-18T03:54:17.352Z,1.77
2023-02-18T03:56:44.369Z,2.08
2023-02-18T03:59:18.140Z,1.42
2023-02-18T04:01:47.301Z,1.20
2023-02-18T04:04:21.236Z,1.10
2023-02-18T04:06:50.066Z,1.30
2023-02-18T04:09:18.865Z,0.88
2023-02-18T04:11:45.456Z,0.77
2023-02-18T04:14:14.442Z,0.80
2023-02-18T04:16:41.539Z,1.00
2023-02-18T04:19:10.658Z,1.15
2023-02-18T04:21:39.687Z,1.00
2023-02-18T04:24:06.268Z,1.20
2023-02-18T04:26:35.738Z,0.70
2023-02-18T04:29:02.356Z,1.25
2023-02-18T04:31:29.110Z,0.90
2023-02-18T04:33:58.500Z,0.80
2023-02-18T04:38:54.630Z,1.15
2023-02-18T04:41:21.268Z,0.70
2023-02-18T04:43:47.884Z,1.00
2023-02-18T04:46:14.503Z,0.85
2023-02-18T04:48:42.498Z,0.90
2023-02-18T04:51:13.065Z,1.35
2023-02-18T04:53:41.890Z,1.23
2023-02-18T04:56:10.149Z,1.00
2023-02-18T04:58:38.891Z,0.77
2023-02-18T05:01:07.849Z,0.98
2023-02-18T05:03:36.650Z,1.02
2023-02-18T05:06:08.305Z,1.00
2023-02-18T05:08:36.055Z,1.17
2023-02-18T05:11:06.541Z,1.30
2023-02-18T05:13:33.079Z,1.42
2023-02-18T05:16:00.164Z,1.20
2023-02-18T05:18:29.052Z,1.38
2023-02-18T05:20:55.603Z,1.63
2023-02-18T05:23:24.377Z,1.15
2023-02-18T05:25:52.462Z,1.30
2023-02-18T05:28:19.071Z,1.40
2023-02-18T05:30:47.869Z,1.88
2023-02-18T05:33:14.623Z,1.15
2023-02-18T05:35:45.524Z,1.23
2023-02-18T05:38:14.498Z,1.92
2023-02-18T05:40:41.076Z,1.67
2023-02-18T05:43:07.923Z,2.10
2023-02-18T05:45:35.284Z,1.80
2023-02-18T05:48:01.907Z,2.33
2023-02-18T05:50:28.606Z,2.25
2023-02-18T05:52:55.143Z,2.25
2023-02-18T05:55:21.847Z,2.47
2023-02-18T05:57:48.606Z,2.30
2023-02-18T06:00:18.557Z,2.20
2023-02-18T06:02:48.332Z,1.65
2023-02-18T06:05:18.092Z,2.20
2023-02-18T06:07:46.840Z,2.33
2023-02-18T06:10:13.520Z,2.17
2023-02-18T06:12:40.118Z,1.63
2023-02-18T06:15:07.357Z,1.85
2023-02-18T06:17:33.926Z,1.65
2023-02-18T06:20:00.501Z,1.70
2023-02-18T06:22:34.369Z,1.90
2023-02-18T06:25:03.843Z,1.77
2023-02-18T06:27:30.539Z,1.65
2023-02-18T06:29:57.408Z,1.20
2023-02-18T06:32:26.176Z,1.70
2023-02-18T06:34:52.832Z,1.20
2023-02-18T06:37:19.485Z,1.50
2023-02-18T06:39:46.312Z,0.98
2023-02-18T06:42:12.913Z,1.60
2023-02-18T06:44:40.754Z,1.20
2023-02-18T06:47:07.438Z,1.00
2023-02-18T06:49:36.687Z,0.80
2023-02-18T06:52:05.614Z,1.10
2023-02-18T06:54:38.809Z,1.17
2023-02-18T06:57:10.311Z,0.73
2023-02-18T06:59:38.962Z,1.00
2023-02-18T07:02:06.114Z,1.40
2023-02-18T07:04:32.697Z,0.77
2023-02-18T07:07:02.102Z,0.98
2023-02-18T07:09:31.931Z,1.20
2023-02-18T07:11:58.531Z,1.17
2023-02-18T07:14:25.144Z,1.20
2023-02-18T07:16:51.733Z,1.20
2023-02-18T07:19:21.998Z,1.25
2023-02-18T07:21:48.570Z,1.52
2023-02-18T07:24:15.158Z,1.42
2023-02-18T07:26:41.712Z,1.33
2023-02-18T07:29:08.982Z,1.30
2023-02-18T07:31:37.715Z,1.35
2023-02-18T07:34:04.301Z,1.15
2023-02-18T07:36:30.878Z,1.20
2023-02-18T07:38:58.644Z,1.38
2023-02-18T07:41:25.256Z,1.30
2023-02-18T07:43:51.821Z,1.33
2023-02-18T07:46:22.141Z,1.25
2023-02-18T07:48:48.762Z,1.48
2023-02-18T07:51:15.331Z,0.95
2023-02-18T07:53:42.381Z,1.00
2023-02-18T07:56:09.652Z,1.50
2023-02-18T07:58:40.218Z,1.55
2023-02-18T08:01:09.168Z,1.48
2023-02-18T08:03:35.856Z,1.40
2023-02-18T08:06:04.532Z,1.63
2023-02-18T08:08:32.378Z,1.30
2023-02-18T08:11:18.093Z,1.50
2023-02-18T08:13:47.193Z,1.77
2023-02-18T08:16:15.328Z,2.08
2023-02-18T08:18:42.072Z,1.55
2023-02-18T08:21:08.832Z,1.73
2023-02-18T08:23:35.419Z,1.83
2023-02-18T08:26:02.150Z,2.00
2023-02-18T08:28:28.892Z,1.70
2023-02-18T08:30:55.520Z,2.22
2023-02-18T08:33:25.502Z,1.65
2023-02-18T08:35:55.989Z,1.73
2023-02-18T08:38:23.965Z,1.63
2023-02-18T08:40:51.878Z,1.60
2023-02-18T08:43:18.598Z,1.95
2023-02-18T08:45:45.323Z,1.98
2023-02-18T08:48:19.308Z,2.75
2023-02-18T08:50:50.790Z,2.17
2023-02-18T08:53:18.074Z,2.00
2023-02-18T08:55:44.930Z,2.20
2023-02-18T08:58:11.893Z,2.65
2023-02-18T09:00:40.979Z,2.13
2023-02-18T09:03:07.858Z,2.17
2023-02-18T09:05:34.459Z,2.15
2023-02-18T09:08:01.050Z,1.73
2023-02-18T09:10:27.672Z,2.50
2023-02-18T09:12:54.271Z,2.63
2023-02-18T09:15:20.858Z,1.73
2023-02-18T09:17:47.483Z,1.83
2023-02-18T09:20:14.322Z,1.73
2023-02-18T09:22:40.916Z,2.13
2023-02-18T09:25:09.568Z,2.00
2023-02-18T09:27:36.517Z,2.25
2023-02-18T09:30:03.921Z,2.00
2023-02-18T09:32:34.994Z,2.53
2023-02-18T09:35:07.563Z,2.07
2023-02-18T09:37:34.165Z,2.13
2023-02-18T09:40:05.585Z,2.40
2023-02-18T09:42:40.447Z,1.85
2023-02-18T09:45:13.300Z,2.42
2023-02-18T09:47:42.509Z,2.58
2023-02-18T09:50:21.271Z,1.58
2023-02-18T09:52:48.474Z,2.17
2023-02-18T09:55:25.424Z,1.90
2023-02-18T09:58:00.374Z,1.90
2023-02-18T10:00:33.800Z,2.33
2023-02-18T10:03:05.273Z,1.77
2023-02-18T10:05:34.165Z,2.00
2023-02-18T10:08:06.972Z,1.90
2023-02-18T10:10:44.150Z,1.88
2023-02-18T10:13:27.147Z,2.67
2023-02-18T10:15:53.915Z,2.90
2023-02-18T10:18:23.338Z,2.05
2023-02-18T10:20:52.371Z,1.67
2023-02-18T10:23:21.183Z,3.03
2023-02-18T10:25:49.083Z,2.00
2023-02-18T10:28:24.625Z,1.92
2023-02-18T10:31:05.018Z,2.10
2023-02-18T10:33:34.663Z,2.00
2023-02-18T10:36:29.977Z,1.67
2023-02-18T10:39:24.263Z,2.03
2023-02-18T10:42:23.325Z,2.60
2023-02-18T10:45:20.981Z,2.28
2023-02-18T10:47:50.644Z,2.17
2023-02-18T10:50:39.156Z,2.53
2023-02-18T10:53:30.885Z,2.50
2023-02-18T10:56:00.450Z,2.65
2023-02-18T10:58:32.425Z,3.00
2023-02-18T11:01:04.816Z,2.65
2023-02-18T11:03:42.609Z,2.83
2023-02-18T11:06:16.773Z,2.17
2023-02-18T11:08:45.844Z,2.42
2023-02-18T11:11:24.423Z,3.00
2023-02-18T11:13:56.150Z,2.28
2023-02-18T11:16:24.469Z,2.80
2023-02-18T11:18:51.228Z,2.25
2023-02-18T11:21:39.098Z,2.20
2023-02-18T11:24:20.280Z,2.50
2023-02-18T11:26:47.014Z,2.50
2023-02-18T11:29:35.287Z,2.22
2023-02-18T11:32:04.432Z,1.85
2023-02-18T11:34:33.023Z,2.40
2023-02-18T11:37:20.804Z,2.50
2023-02-18T11:39:53.526Z,2.20
2023-02-18T11:42:24.564Z,2.05
2023-02-18T11:44:57.090Z,3.17
2023-02-18T11:47:32.518Z,1.85
2023-02-18T11:50:22.592Z,2.50
2023-02-18T11:52:51.058Z,2.00
2023-02-18T11:55:32.750Z,2.75
2023-02-18T11:58:06.207Z,2.80
2023-02-18T12:00:38.398Z,2.10
2023-02-18T12:03:21.083Z,2.40
2023-02-18T12:05:48.511Z,2.40
2023-02-18T12:08:23.944Z,2.88
2023-02-18T12:10:53.733Z,2.30
2023-02-18T12:13:39.173Z,3.10
2023-02-18T12:16:26.534Z,2.13
2023-02-18T12:19:13.844Z,2.08
2023-02-18T12:21:55.751Z,2.28
2023-02-18T12:25:04.148Z,2.78
2023-02-18T12:27:43.040Z,2.55
2023-02-18T12:30:49.171Z,2.40
2023-02-18T12:33:44.354Z,2.50
2023-02-18T12:36:24.672Z,2.58
2023-02-18T12:38:57.083Z,2.45
2023-02-18T12:44:12.014Z,2.75
2023-02-18T12:47:06.406Z,3.00
2023-02-18T12:49:41.900Z,3.10
2023-02-18T12:52:17.435Z,3.08
2023-02-18T12:54:59.151Z,3.35
2023-02-18T12:58:05.773Z,2.53
2023-02-18T13:00:57.284Z,3.10
2023-02-18T13:03:26.709Z,2.67
2023-02-18T13:06:52.335Z,3.10
2023-02-18T13:09:43.424Z,2.72
2023-02-18T13:12:24.829Z,3.45
2023-02-18T13:15:37.511Z,3.13
2023-02-18T13:18:11.378Z,3.67
2023-02-18T13:20:52.620Z,3.35
2023-02-18T13:23:25.894Z,2.90
2023-02-18T13:26:01.047Z,3.28
2023-02-18T13:28:45.177Z,3.05
2023-02-18T13:31:17.401Z,3.28
2023-02-18T13:34:00.159Z,3.72
2023-02-18T13:36:36.269Z,3.25
2023-02-18T13:39:20.289Z,4.00
2023-02-18T13:41:49.500Z,3.35
2023-02-18T13:44:22.225Z,3.40
2023-02-18T13:46:52.873Z,3.95
2023-02-18T13:49:25.386Z,3.38
2023-02-18T13:51:57.607Z,3.63
2023-02-18T13:54:28.670Z,3.83
2023-02-18T13:57:00.039Z,3.47
2023-02-18T13:59:34.198Z,3.47
2023-02-18T14:02:19.493Z,3.47
2023-02-18T14:04:46.199Z,3.55
2023-02-18T14:07:27.486Z,4.00
2023-02-18T14:09:57.322Z,3.25
2023-02-18T14:12:38.890Z,3.85
2023-02-18T14:15:20.766Z,3.95
2023-02-18T14:18:08.688Z,3.55
2023-02-18T14:20:38.316Z,3.53
2023-02-18T14:23:19.956Z,3.70
2023-02-18T14:25:57.017Z,2.72
2023-02-18T14:28:36.052Z,2.95
2023-02-18T14:31:12.190Z,2.85
2023-02-18T14:34:02.070Z,3.10
2023-02-18T14:36:40.333Z,2.70
2023-02-18T14:39:57.453Z,3.03
2023-02-18T14:42:51.780Z,3.22
2023-02-18T14:45:45.656Z,3.17
2023-02-18T14:48:27.365Z,2.90
2023-02-18T14:50:56.367Z,2.90
2023-02-18T14:53:26.075Z,3.42
2023-02-18T14:55:59.058Z,4.65
2023-02-18T14:58:29.627Z,4.43
2023-02-18T15:00:56.595Z,5.47
2023-02-18T15:03:23.638Z,5.07
2023-02-18T15:05:51.302Z,3.88
2023-02-18T15:08:23.078Z,4.20
2023-02-18T15:11:04.472Z,4.90
2023-02-18T15:13:34.749Z,5.25
2023-02-18T15:16:09.957Z,4.03
2023-02-18T15:18:55.478Z,3.28
2023-02-18T15:21:25.993Z,3.22
2023-02-18T15:23:54.741Z,2.92
2023-02-18T15:26:21.656Z,3.55
2023-02-18T15:29:00.064Z,3.10
2023-02-18T15:31:28.963Z,2.90
2023-02-18T15:33:55.809Z,4.30
2023-02-18T15:36:25.169Z,3.83
2023-02-18T15:38:51.817Z,4.30
2023-02-18T15:41:20.894Z,4.18
2023-02-18T15:44:03.446Z,4.28
2023-02-18T15:48:58.864Z,3.97
2023-02-18T15:51:29.796Z,3.85
2023-02-18T15:53:59.265Z,11.27
2023-02-18T15:56:36.038Z,5.18
2023-02-18T15:59:30.490Z,8.75
2023-02-18T16:02:09.837Z,5.18
2023-02-18T16:04:41.320Z,4.25
2023-02-18T16:07:28.128Z,3.80
2023-02-18T16:10:20.068Z,5.07
2023-02-18T16:12:50.878Z,4.67
2023-02-18T16:15:26.122Z,5.30
2023-02-18T16:17:53.045Z,3.83
2023-02-18T16:20:30.087Z,3.88
2023-02-18T16:23:01.772Z,3.83
2023-02-18T16:25:45.433Z,3.00
2023-02-18T16:28:32.451Z,3.50
2023-02-18T16:30:59.050Z,3.15
2023-02-18T16:33:25.656Z,3.38
2023-02-18T16:35:52.361Z,3.80
2023-02-18T16:38:21.760Z,4.13
2023-02-18T16:40:49.440Z,4.32
2023-02-18T16:43:22.222Z,3.70
2023-02-18T16:45:57.871Z,3.97
2023-02-18T16:48:41.178Z,4.03
2023-02-18T16:51:13.860Z,3.60
2023-02-18T16:53:40.568Z,3.28
2023-02-18T16:56:14.916Z,3.45
2023-02-18T16:58:42.029Z,3.53
2023-02-18T17:01:21.049Z,4.10
2023-02-18T17:03:48.978Z,3.75
2023-02-18T17:06:16.222Z,3.60
2023-02-18T17:08:42.850Z,4.10
2023-02-18T17:11:35.453Z,4.50
2023-02-18T17:14:05.027Z,3.67
2023-02-18T17:16:32.028Z,2.92
2023-02-18T17:19:00.598Z,3.00
2023-02-18T17:21:27.232Z,3.60
2023-02-18T17:23:54.156Z,3.22
2023-02-18T17:26:24.518Z,3.28
2023-02-18T17:28:52.407Z,3.67
2023-02-18T17:31:24.055Z,4.32
2023-02-18T17:33:50.853Z,4.03
2023-02-18T17:36:17.555Z,4.35
2023-02-18T17:38:44.403Z,4.03
2023-02-18T17:41:13.238Z,4.03
2023-02-18T17:43:40.247Z,4.68
2023-02-18T17:46:12.065Z,4.20
2023-02-18T17:48:39.363Z,4.43
2023-02-18T17:51:07.442Z,4.47
2023-02-18T17:53:34.748Z,5.32
2023-02-18T17:56:01.494Z,5.82
2023-02-18T17:58:28.071Z,5.25
2023-02-18T18:00:57.004Z,5.32
2023-02-18T18:03:23.638Z,5.28
2023-02-18T18:05:51.993Z,5.63
2023-02-18T18:08:19.209Z,6.65
2023-02-18T18:10:59.078Z,5.07
2023-02-18T18:13:28.137Z,5.28
2023-02-18T18:15:57.486Z,5.70
2023-02-18T18:18:25.325Z,4.90
2023-02-18T18:20:54.193Z,5.47
2023-02-18T18:23:24.332Z,5.53
2023-02-18T18:25:53.733Z,4.90
2023-02-18T18:28:21.715Z,4.85
2023-02-18T18:30:51.057Z,5.38
2023-02-18T18:33:29.289Z,5.32
2023-02-18T18:35:59.696Z,5.03
2023-02-18T18:38:29.689Z,4.75
2023-02-18T18:40:58.393Z,5.10
2023-02-18T18:43:32.746Z,5.80
2023-02-18T18:46:00.382Z,5.20
2023-02-18T18:48:29.514Z,5.10
2023-02-18T18:51:02.581Z,4.72
2023-02-18T18:53:32.463Z,4.95
2023-02-18T18:56:08.103Z,5.18
2023-02-18T18:58:34.734Z,10.55
2023-02-18T19:01:06.439Z,15.13
2023-02-18T19:03:35.201Z,19.23
2023-02-18T19:06:05.739Z,10.45
2023-02-18T19:08:33.215Z,8.43
2023-02-18T19:11:03.752Z,6.68
2023-02-18T19:13:35.602Z,5.80
2023-02-18T19:16:33.282Z,5.50
2023-02-18T19:19:02.634Z,4.93
2023-02-18T19:21:29.222Z,5.97
2023-02-18T19:23:55.848Z,6.22
2023-02-18T19:26:24.148Z,5.90
2023-02-18T19:28:51.955Z,6.28
2023-02-18T19:31:23.863Z,5.75
2023-02-18T19:33:53.198Z,6.22
2023-02-18T19:36:19.869Z,6.40
2023-02-18T19:38:46.631Z,6.53
2023-02-18T19:41:19.392Z,6.82
2023-02-18T19:43:48.698Z,6.30
2023-02-18T19:46:19.625Z,6.32
2023-02-18T19:48:52.506Z,6.95
2023-02-18T19:51:23.023Z,6.53
2023-02-18T19:53:54.340Z,6.43
2023-02-18T19:56:21.286Z,7.65
2023-02-18T19:58:47.865Z,8.00
2023-02-18T20:01:15.864Z,7.13
2023-02-18T20:03:43.402Z,6.82
2023-02-18T20:06:20.625Z,8.05
2023-02-18T20:08:50.070Z,6.80
2023-02-18T20:11:19.266Z,7.50
2023-02-18T20:13:47.756Z,7.68
2023-02-18T20:16:17.240Z,6.80
2023-02-18T20:18:48.246Z,8.45
2023-02-18T20:21:17.228Z,7.65
2023-02-18T20:23:43.766Z,7.38
2023-02-18T20:26:14.541Z,6.93
2023-02-18T20:28:41.351Z,7.95
2023-02-18T20:31:12.877Z,8.30
2023-02-18T20:33:42.059Z,8.57
2023-02-18T20:36:09.490Z,8.63
2023-02-18T20:38:37.948Z,7.35
2023-02-18T20:41:14.156Z,7.93
2023-02-18T20:43:41.398Z,7.65
2023-02-18T20:46:11.491Z,7.55
2023-02-18T20:48:38.305Z,7.40
2023-02-18T20:51:06.045Z,7.25
2023-02-18T20:53:34.401Z,7.40
2023-02-18T20:56:07.278Z,7.82
2023-02-18T20:58:36.918Z,6.50
2023-02-18T21:01:13.437Z,6.50
2023-02-18T21:03:49.383Z,6.65
2023-02-18T21:06:23.296Z,6.25
2023-02-18T21:08:55.765Z,6.40
2023-02-18T21:11:26.631Z,6.47
2023-02-18T21:13:56.973Z,6.00
2023-02-18T21:16:28.762Z,6.30
2023-02-18T21:19:00.484Z,6.30
2023-02-18T21:21:29.566Z,6.25
2023-02-18T21:23:56.228Z,6.43
2023-02-18T21:26:25.612Z,5.70
2023-02-18T21:28:55.145Z,6.55
2023-02-18T21:31:30.963Z,6.45
2023-02-18T21:33:58.246Z,6.28
2023-02-18T21:36:25.623Z,6.55
2023-02-18T21:38:56.281Z,6.63
2023-02-18T21:41:24.263Z,6.90
2023-02-18T21:43:53.527Z,6.75
2023-02-18T21:46:25.707Z,6.78
2023-02-18T21:49:02.647Z,6.50
2023-02-18T21:51:54.577Z,6.93
2023-02-18T21:54:27.436Z,6.53
2023-02-18T21:56:55.241Z,6.05
2023-02-18T21:59:29.001Z,5.95
2023-02-18T22:01:57.210Z,6.63
2023-02-18T22:04:32.587Z,7.00
2023-02-18T22:07:03.211Z,7.28
2023-02-18T22:09:35.970Z,6.63
2023-02-18T22:12:04.207Z,6.47
2023-02-18T22:14:34.545Z,6.30
2023-02-18T22:17:03.590Z,6.38
2023-02-18T22:19:30.262Z,6.03
2023-02-18T22:22:04.402Z,6.15
2023-02-18T22:24:31.742Z,6.32
2023-02-18T22:27:02.099Z,6.28
2023-02-18T22:29:31.497Z,6.47
2023-02-18T22:31:58.206Z,5.80
2023-02-18T22:34:26.106Z,6.63
2023-02-18T22:36:56.455Z,6.07
2023-02-18T22:39:26.341Z,5.97
2023-02-18T22:41:52.963Z,6.18
2023-02-18T22:44:20.142Z,6.47
2023-02-18T22:46:46.728Z,6.32
2023-02-18T22:49:16.182Z,6.07
2023-02-18T22:51:44.215Z,6.30
2023-02-18T22:54:16.325Z,6.35
2023-02-18T22:56:46.393Z,6.97
2023-02-18T22:59:16.292Z,6.50
2023-02-18T23:01:48.781Z,7.25
2023-02-18T23:04:19.163Z,7.07
2023-02-18T23:06:46.606Z,6.78
2023-02-18T23:09:16.372Z,7.82
2023-02-18T23:11:42.966Z,6.53
2023-02-18T23:14:20.410Z,7.47
2023-02-18T23:17:09.675Z,6.70
2023-02-18T23:19:42.726Z,6.40
2023-02-18T23:22:15.885Z,6.78
2023-02-18T23:24:44.321Z,7.05
2023-02-18T23:27:13.677Z,7.05
2023-02-18T23:29:42.654Z,7.82
2023-02-18T23:32:10.091Z,6.72
2023-02-18T23:34:39.141Z,6.97
2023-02-18T23:37:05.917Z,6.68
2023-02-18T23:39:32.758Z,7.05
2023-02-18T23:42:02.106Z,6.93
2023-02-18T23:44:29.194Z,6.88
2023-02-18T23:46:55.923Z,6.75
2023-02-18T23:49:27.091Z,6.30
2023-02-18T23:51:55.785Z,6.85
2023-02-18T23:54:24.105Z,6.10
2023-02-18T23:56:53.433Z,6.30
2023-02-18T23:59:22.699Z,6.07
